Time;durP1;ratioP1;P1;durP2;ratioP2;P2;SDS_P1;SDS_P2;PMS_P1;PMS_P2;Temp;Humidity;BMP_temperature;BMP_pressure;BME280_temperature;BME280_humidity;BME280_pressure;Samples;Min_cycle;Max_cycle;Signal;HPM_P1;HPM_P2
2023/05/15 00:00:11;;;;;;;34.65;21.55;;;;;;;;;;5121647;27;20035;-86
2023/05/15 00:02:38;;;;;;;47.47;25.25;;;;;;;;;;5137742;27;20474;-87
2023/05/15 00:05:05;;;;;;;37.42;22.90;;;;;;;;;;5135404;27;20534;-86
2023/05/15 00:07:31;;;;;;;41.65;24.38;;;;;;;;;;5125953;27;20037;-87
2023/05/15 00:09:57;;;;;;;33.78;21.05;;;;;;;;;;5122898;27;20046;-85
2023/05/15 00:12:23;;;;;;;37.40;24.17;;;;;;;;;;5137758;27;20030;-82
2023/05/15 00:14:49;;;;;;;33.33;20.10;;;;;;;;;;5127707;27;20125;-87
2023/05/15 00:17:15;;;;;;;36.92;22.90;;;;;;;;;;5102453;27;20042;-86
2023/05/15 00:19:41;;;;;;;47.25;24.40;;;;;;;;;;5128231;27;20121;-86
2023/05/15 00:22:08;;;;;;;40.22;24.02;;;;;;;;;;5142359;27;20046;-87
2023/05/15 00:24:34;;;;;;;41.42;24.30;;;;;;;;;;5154467;27;20118;-87
2023/05/15 00:27:00;;;;;;;42.53;24.60;;;;;;;;;;5128503;27;20038;-88
2023/05/15 00:29:27;;;;;;;39.55;23.65;;;;;;;;;;5126103;27;20467;-86
2023/05/15 00:31:53;;;;;;;39.67;24.05;;;;;;;;;;5134415;27;20042;-88
2023/05/15 00:34:19;;;;;;;33.38;21.77;;;;;;;;;;5137258;27;20047;-86
2023/05/15 00:36:46;;;;;;;39.22;23.73;;;;;;;;;;5129417;27;20051;-88
2023/05/15 00:39:12;;;;;;;40.72;24.73;;;;;;;;;;5131333;27;20086;-86
2023/05/15 00:41:40;;;;;;;37.97;23.35;;;;;;;;;;5155531;27;20489;-88
2023/05/15 00:44:06;;;;;;;40.13;24.10;;;;;;;;;;5155525;27;20091;-87
2023/05/15 00:46:33;;;;;;;38.40;24.10;;;;;;;;;;5140548;27;20038;-88
2023/05/15 00:49:00;;;;;;;40.42;24.52;;;;;;;;;;5136952;27;20065;-86
2023/05/15 00:51:26;;;;;;;38.55;23.15;;;;;;;;;;5136288;27;20043;-84
2023/05/15 00:53:53;;;;;;;42.42;25.17;;;;;;;;;;5137111;27;20559;-87
2023/05/15 00:56:20;;;;;;;36.50;21.13;;;;;;;;;;5136643;27;20057;-86
2023/05/15 00:58:46;;;;;;;33.63;21.05;;;;;;;;;;5119672;27;20094;-88
2023/05/15 01:01:16;;;;;;;39.10;24.13;;;;;;;;;;5155254;27;20043;-85
2023/05/15 01:03:43;;;;;;;38.28;24.45;;;;;;;;;;5149254;27;20039;-87
2023/05/15 01:06:09;;;;;;;40.47;24.35;;;;;;;;;;5116342;27;20076;-87
2023/05/15 01:08:49;;;;;;;39.10;24.08;;;;;;;;;;5133531;27;20034;-87
2023/05/15 01:11:16;;;;;;;43.22;24.85;;;;;;;;;;5136946;27;20050;-87
2023/05/15 01:13:42;;;;;;;32.83;20.95;;;;;;;;;;5136377;27;20043;-86
2023/05/15 01:16:09;;;;;;;40.53;24.05;;;;;;;;;;5136607;27;20049;-87
2023/05/15 01:18:35;;;;;;;38.10;23.85;;;;;;;;;;5136318;27;20061;-88
2023/05/15 01:21:01;;;;;;;43.08;25.17;;;;;;;;;;5136513;27;20045;-87
2023/05/15 01:23:34;;;;;;;33.20;21.65;;;;;;;;;;5122016;27;20075;-87
2023/05/15 01:26:00;;;;;;;42.72;24.58;;;;;;;;;;5115714;27;20039;-87
2023/05/15 01:28:31;;;;;;;32.38;20.70;;;;;;;;;;5128576;27;20042;-86
2023/05/15 01:30:59;;;;;;;38.40;23.75;;;;;;;;;;5105053;27;20046;-82
2023/05/15 01:33:28;;;;;;;39.45;23.73;;;;;;;;;;5135989;27;20395;-76
2023/05/15 01:36:16;;;;;;;35.72;21.88;;;;;;;;;;5132779;27;20123;-76
2023/05/15 01:38:44;;;;;;;38.92;22.67;;;;;;;;;;5127890;27;20041;-79
2023/05/15 01:41:10;;;;;;;36.30;20.50;;;;;;;;;;5136138;27;20407;-79
2023/05/15 01:43:39;;;;;;;34.60;20.80;;;;;;;;;;5124992;27;20035;-80
2023/05/15 01:46:05;;;;;;;36.10;21.88;;;;;;;;;;5151194;27;20039;-80
2023/05/15 01:48:33;;;;;;;37.92;22.02;;;;;;;;;;5129953;27;20042;-81
2023/05/15 01:51:02;;;;;;;35.45;22.25;;;;;;;;;;5128836;27;20054;-81
2023/05/15 01:53:30;;;;;;;38.97;23.40;;;;;;;;;;5118283;27;20057;-80
2023/05/15 01:55:57;;;;;;;37.90;23.25;;;;;;;;;;5142661;27;20031;-81
2023/05/15 01:58:24;;;;;;;44.25;23.17;;;;;;;;;;5133464;27;20387;-81
2023/05/15 02:00:51;;;;;;;38.25;24.02;;;;;;;;;;5135393;27;20052;-80
2023/05/15 02:03:17;;;;;;;39.25;23.48;;;;;;;;;;5121473;27;20030;-81
2023/05/15 02:05:43;;;;;;;39.17;22.13;;;;;;;;;;5122686;27;20455;-81
2023/05/15 02:08:10;;;;;;;41.47;20.45;;;;;;;;;;5135680;27;20042;-81
2023/05/15 02:10:36;;;;;;;43.08;21.40;;;;;;;;;;5153929;27;20042;-81
2023/05/15 02:13:05;;;;;;;110.88;22.90;;;;;;;;;;5135528;27;20125;-81
2023/05/15 02:15:31;;;;;;;35.60;19.50;;;;;;;;;;5118863;27;20039;-82
2023/05/15 02:17:57;;;;;;;35.47;20.92;;;;;;;;;;5129191;27;20035;-82
2023/05/15 02:20:23;;;;;;;35.47;20.58;;;;;;;;;;5154876;27;20038;-80
2023/05/15 02:22:49;;;;;;;52.60;20.88;;;;;;;;;;5158207;27;20042;-79
2023/05/15 02:25:15;;;;;;;104.18;23.23;;;;;;;;;;5125404;27;20043;-80
2023/05/15 02:27:50;;;;;;;37.47;23.00;;;;;;;;;;5139674;27;20082;-82
2023/05/15 02:30:25;;;;;;;40.08;24.23;;;;;;;;;;5158339;27;20475;-79
2023/05/15 02:33:00;;;;;;;41.45;24.63;;;;;;;;;;5109431;27;20042;-82
2023/05/15 02:35:26;;;;;;;31.38;20.35;;;;;;;;;;5139638;27;20042;-79
2023/05/15 02:37:54;;;;;;;29.98;18.92;;;;;;;;;;5124961;27;20043;-79
2023/05/15 02:40:23;;;;;;;39.47;22.02;;;;;;;;;;5158395;27;20043;-76
2023/05/15 02:42:49;;;;;;;34.22;20.17;;;;;;;;;;5158080;27;20118;-79
2023/05/15 02:45:15;;;;;;;35.63;21.42;;;;;;;;;;5139613;27;20049;-81
2023/05/15 02:47:42;;;;;;;30.63;19.85;;;;;;;;;;5143132;27;20065;-80
2023/05/15 02:50:08;;;;;;;41.53;22.52;;;;;;;;;;5139469;27;20049;-77
2023/05/15 02:52:34;;;;;;;40.13;22.75;;;;;;;;;;5138703;27;20077;-81
2023/05/15 02:55:01;;;;;;;39.00;23.30;;;;;;;;;;5125512;27;20047;-83
2023/05/15 02:57:27;;;;;;;36.92;22.48;;;;;;;;;;5139499;27;20046;-82
2023/05/15 02:59:54;;;;;;;36.15;22.23;;;;;;;;;;5139254;27;20076;-77
2023/05/15 03:02:20;;;;;;;39.58;21.65;;;;;;;;;;5139276;27;20046;-80
2023/05/15 03:04:46;;;;;;;37.58;21.15;;;;;;;;;;5122137;27;20047;-79
2023/05/15 03:07:13;;;;;;;36.80;20.73;;;;;;;;;;5157869;27;20101;-79
2023/05/15 03:09:39;;;;;;;40.20;21.33;;;;;;;;;;5157139;27;20039;-76
2023/05/15 03:12:06;;;;;;;33.53;19.52;;;;;;;;;;5139250;27;20382;-78
2023/05/15 03:14:32;;;;;;;39.45;21.90;;;;;;;;;;5157554;27;20043;-80
2023/05/15 03:16:58;;;;;;;32.15;19.13;;;;;;;;;;5157022;27;20160;-77
2023/05/15 03:19:24;;;;;;;34.63;20.42;;;;;;;;;;5138811;27;20167;-80
2023/05/15 03:21:50;;;;;;;31.10;18.48;;;;;;;;;;5156862;27;20057;-76
2023/05/15 03:24:16;;;;;;;31.17;18.30;;;;;;;;;;5157151;27;20066;-78
2023/05/15 03:26:43;;;;;;;28.60;17.88;;;;;;;;;;5136841;27;20035;-76
2023/05/15 03:29:10;;;;;;;32.58;18.75;;;;;;;;;;5134933;27;20114;-78
2023/05/15 03:31:36;;;;;;;28.65;17.70;;;;;;;;;;5138626;27;20038;-76
2023/05/15 03:34:02;;;;;;;32.80;17.77;;;;;;;;;;5120919;27;20073;-78
2023/05/15 03:36:28;;;;;;;27.27;16.60;;;;;;;;;;5156936;27;20421;-78
2023/05/15 03:38:54;;;;;;;31.33;18.92;;;;;;;;;;5138422;27;20395;-80
2023/05/15 03:41:21;;;;;;;25.15;15.52;;;;;;;;;;5156811;27;20054;-79
2023/05/15 03:43:47;;;;;;;30.20;17.58;;;;;;;;;;5138296;27;20088;-77
2023/05/15 03:46:13;;;;;;;25.95;16.23;;;;;;;;;;5156548;27;20046;-78
2023/05/15 03:48:39;;;;;;;29.20;17.70;;;;;;;;;;5127827;27;20119;-75
2023/05/15 03:51:05;;;;;;;33.63;18.95;;;;;;;;;;5134111;27;20045;-79
2023/05/15 03:53:31;;;;;;;30.73;18.35;;;;;;;;;;5156437;27;20127;-78
2023/05/15 03:55:57;;;;;;;27.85;16.00;;;;;;;;;;5137644;27;20042;-78
2023/05/15 03:58:23;;;;;;;30.83;18.33;;;;;;;;;;5156789;27;20375;-75
2023/05/15 04:00:50;;;;;;;29.85;17.23;;;;;;;;;;5137769;27;20083;-76
2023/05/15 04:03:16;;;;;;;29.67;17.50;;;;;;;;;;5133433;27;20084;-78
2023/05/15 04:05:42;;;;;;;30.27;18.52;;;;;;;;;;5152916;27;20112;-78
2023/05/15 04:08:09;;;;;;;31.50;18.65;;;;;;;;;;5106359;27;20114;-77
2023/05/15 04:10:38;;;;;;;34.55;20.15;;;;;;;;;;5117470;27;20042;-78
2023/05/15 04:13:04;;;;;;;35.33;19.95;;;;;;;;;;5098744;27;20042;-77
2023/05/15 04:15:30;;;;;;;37.40;20.63;;;;;;;;;;5120627;27;20047;-79
2023/05/15 04:17:56;;;;;;;32.13;18.15;;;;;;;;;;5137282;27;20042;-77
2023/05/15 04:20:23;;;;;;;27.35;17.33;;;;;;;;;;5134633;27;20061;-78
2023/05/15 04:22:50;;;;;;;29.20;17.88;;;;;;;;;;5119901;27;20436;-76
2023/05/15 04:25:16;;;;;;;31.85;19.40;;;;;;;;;;5117650;27;20048;-78
2023/05/15 04:27:43;;;;;;;33.65;19.50;;;;;;;;;;5137129;27;20039;-77
2023/05/15 04:30:10;;;;;;;30.42;18.42;;;;;;;;;;5135497;27;20409;-77
2023/05/15 04:32:36;;;;;;;28.48;17.95;;;;;;;;;;5122082;27;20117;-77
2023/05/15 04:35:08;;;;;;;28.35;18.13;;;;;;;;;;5137002;27;20043;-78
2023/05/15 04:37:34;;;;;;;31.20;19.33;;;;;;;;;;5120211;27;20060;-78
2023/05/15 04:40:00;;;;;;;29.58;17.42;;;;;;;;;;5136389;27;20050;-77
2023/05/15 04:42:26;;;;;;;29.20;18.75;;;;;;;;;;5136936;27;20057;-77
2023/05/15 04:44:53;;;;;;;28.67;18.88;;;;;;;;;;5155220;27;20110;-77
2023/05/15 04:47:19;;;;;;;27.95;16.42;;;;;;;;;;5142394;27;20031;-77
2023/05/15 04:49:46;;;;;;;29.67;18.63;;;;;;;;;;5116158;27;20037;-77
2023/05/15 04:52:13;;;;;;;26.95;17.73;;;;;;;;;;5145933;27;20096;-77
2023/05/15 04:54:39;;;;;;;28.05;16.83;;;;;;;;;;5136757;27;20046;-78
2023/05/15 04:57:05;;;;;;;28.35;17.70;;;;;;;;;;5126973;27;20092;-77
2023/05/15 04:59:31;;;;;;;25.63;16.67;;;;;;;;;;5100856;27;20086;-78
2023/05/15 05:01:57;;;;;;;25.35;17.25;;;;;;;;;;5154823;27;20399;-77
2023/05/15 05:04:23;;;;;;;27.83;17.48;;;;;;;;;;5119704;27;20038;-79
2023/05/15 05:06:49;;;;;;;27.30;17.80;;;;;;;;;;5155320;27;20083;-76
2023/05/15 05:09:16;;;;;;;26.40;16.77;;;;;;;;;;5136806;27;20398;-79
2023/05/15 05:11:44;;;;;;;24.55;17.30;;;;;;;;;;5136499;27;20038;-77
2023/05/15 05:14:11;;;;;;;25.70;17.17;;;;;;;;;;5136407;27;20049;-79
2023/05/15 05:16:37;;;;;;;25.60;17.98;;;;;;;;;;5153419;27;20410;-79
2023/05/15 05:19:03;;;;;;;24.77;17.60;;;;;;;;;;5155051;27;20455;-80
2023/05/15 05:21:30;;;;;;;21.20;15.13;;;;;;;;;;5121814;27;20067;-79
2023/05/15 05:23:56;;;;;;;26.33;16.73;;;;;;;;;;5136110;27;20565;-80
2023/05/15 05:26:22;;;;;;;21.52;14.55;;;;;;;;;;5123826;27;20471;-79
2023/05/15 05:28:48;;;;;;;19.48;13.77;;;;;;;;;;5138747;27;20042;-78
2023/05/15 05:31:15;;;;;;;22.48;14.55;;;;;;;;;;5154841;27;20035;-79
2023/05/15 05:33:41;;;;;;;19.38;14.25;;;;;;;;;;5154803;27;20483;-79
2023/05/15 05:36:07;;;;;;;21.98;15.63;;;;;;;;;;5135678;27;20030;-78
2023/05/15 05:38:33;;;;;;;17.42;13.27;;;;;;;;;;5143358;27;20042;-77
2023/05/15 05:41:00;;;;;;;17.33;14.48;;;;;;;;;;5132531;27;20035;-80
2023/05/15 05:43:26;;;;;;;19.45;14.85;;;;;;;;;;5136065;27;20041;-79
2023/05/15 05:45:52;;;;;;;20.45;15.93;;;;;;;;;;5121415;27;20039;-78
2023/05/15 05:48:18;;;;;;;19.48;14.63;;;;;;;;;;5154240;27;20034;-81
2023/05/15 05:50:44;;;;;;;20.42;14.05;;;;;;;;;;5118710;27;20074;-80
2023/05/15 05:53:10;;;;;;;18.98;15.35;;;;;;;;;;5153927;27;20054;-78
2023/05/15 05:55:36;;;;;;;20.30;15.20;;;;;;;;;;5135917;27;20066;-80
2023/05/15 05:58:03;;;;;;;20.45;16.05;;;;;;;;;;5154164;27;20027;-79
2023/05/15 06:00:29;;;;;;;18.52;14.68;;;;;;;;;;5135782;27;20114;-78
2023/05/15 06:02:57;;;;;;;18.27;14.32;;;;;;;;;;5118515;27;20061;-78
2023/05/15 06:05:23;;;;;;;19.45;14.63;;;;;;;;;;5135929;27;20096;-76
2023/05/15 06:07:50;;;;;;;19.23;14.45;;;;;;;;;;5118441;27;20039;-78
2023/05/15 06:10:16;;;;;;;19.63;15.48;;;;;;;;;;5139954;27;20039;-79
2023/05/15 06:12:42;;;;;;;19.65;15.15;;;;;;;;;;5154646;27;20039;-76
2023/05/15 06:15:08;;;;;;;21.83;14.55;;;;;;;;;;5154508;27;20493;-77
2023/05/15 06:17:34;;;;;;;19.98;14.70;;;;;;;;;;5135947;27;20114;-79
2023/05/15 06:20:00;;;;;;;20.92;15.43;;;;;;;;;;5135727;27;20057;-81
2023/05/15 06:22:27;;;;;;;19.23;14.68;;;;;;;;;;5129768;28;20063;-78
2023/05/15 06:24:53;;;;;;;20.85;14.35;;;;;;;;;;5127991;27;20499;-77
2023/05/15 06:27:19;;;;;;;18.75;15.00;;;;;;;;;;5154104;27;20039;-77
2023/05/15 06:29:45;;;;;;;20.30;15.20;;;;;;;;;;5143263;27;20042;-77
2023/05/15 06:32:11;;;;;;;16.88;13.23;;;;;;;;;;5147936;27;20062;-79
2023/05/15 06:34:37;;;;;;;18.77;13.52;;;;;;;;;;5119202;27;20122;-77
2023/05/15 06:37:03;;;;;;;21.40;14.57;;;;;;;;;;5135160;27;20042;-81
2023/05/15 06:39:29;;;;;;;14.43;11.95;;;;;;;;;;5135228;27;20046;-79
2023/05/15 06:42:00;;;;;;;15.65;12.20;;;;;;;;;;5135357;27;20099;-79
2023/05/15 06:44:26;;;;;;;18.65;13.32;;;;;;;;;;5139398;27;20039;-78
2023/05/15 06:46:52;;;;;;;15.75;11.80;;;;;;;;;;5135272;27;20043;-78
2023/05/15 06:49:18;;;;;;;14.68;12.18;;;;;;;;;;5139042;27;20088;-76
2023/05/15 06:51:44;;;;;;;14.27;11.85;;;;;;;;;;5135492;27;20518;-80
2023/05/15 06:54:10;;;;;;;13.90;11.20;;;;;;;;;;5114400;28;20094;-80
2023/05/15 06:56:36;;;;;;;14.02;10.63;;;;;;;;;;5134721;27;20512;-78
2023/05/15 06:59:02;;;;;;;14.20;10.55;;;;;;;;;;5117935;27;20042;-79
2023/05/15 07:01:29;;;;;;;13.40;10.38;;;;;;;;;;5135546;27;20042;-78
2023/05/15 07:03:55;;;;;;;11.82;10.55;;;;;;;;;;5139170;27;20058;-79
2023/05/15 07:06:22;;;;;;;11.80;9.98;;;;;;;;;;5138574;27;20034;-77
2023/05/15 07:08:48;;;;;;;13.48;10.35;;;;;;;;;;5138998;27;20045;-78
2023/05/15 07:11:14;;;;;;;12.20;10.02;;;;;;;;;;5138826;27;20058;-78
2023/05/15 07:13:40;;;;;;;11.10;10.00;;;;;;;;;;5139070;27;20047;-80
2023/05/15 07:16:06;;;;;;;11.05;9.65;;;;;;;;;;5136721;27;20035;-81
2023/05/15 07:18:32;;;;;;;10.40;8.65;;;;;;;;;;5157715;27;20034;-80
2023/05/15 07:20:59;;;;;;;13.60;8.60;;;;;;;;;;5138993;27;20436;-77
2023/05/15 07:23:25;;;;;;;11.95;9.15;;;;;;;;;;5138492;27;20047;-79
2023/05/15 07:25:52;;;;;;;10.82;9.55;;;;;;;;;;5157496;27;20042;-81
2023/05/15 07:28:18;;;;;;;12.30;9.40;;;;;;;;;;5156859;27;20070;-77
2023/05/15 07:30:44;;;;;;;12.02;8.10;;;;;;;;;;5157126;27;20034;-84
2023/05/15 07:33:10;;;;;;;11.88;8.32;;;;;;;;;;5138679;27;20380;-82
2023/05/15 07:35:37;;;;;;;10.18;8.30;;;;;;;;;;5138707;27;20495;-82
2023/05/15 07:38:03;;;;;;;9.60;8.60;;;;;;;;;;5138529;27;20046;-83
2023/05/15 07:40:29;;;;;;;8.85;8.00;;;;;;;;;;5143673;27;20488;-80
2023/05/15 07:42:55;;;;;;;9.63;8.65;;;;;;;;;;5150560;27;20039;-81
2023/05/15 07:45:21;;;;;;;11.70;8.32;;;;;;;;;;5147367;27;20042;-80
2023/05/15 07:47:48;;;;;;;10.48;8.50;;;;;;;;;;5124184;27;20039;-81
2023/05/15 07:50:14;;;;;;;9.77;8.68;;;;;;;;;;5137989;27;20034;-78
2023/05/15 07:52:41;;;;;;;10.07;8.63;;;;;;;;;;5136526;27;20065;-81
2023/05/15 07:55:12;;;;;;;9.15;8.20;;;;;;;;;;5143942;27;20480;-80
2023/05/15 07:57:41;;;;;;;11.27;9.52;;;;;;;;;;5138214;27;20038;-84
2023/05/15 08:00:12;;;;;;;13.27;10.88;;;;;;;;;;5138390;27;20524;-85
2023/05/15 08:02:39;;;;;;;12.85;10.82;;;;;;;;;;5124719;27;20545;-82
2023/05/15 08:05:05;;;;;;;12.35;9.73;;;;;;;;;;5100803;27;20092;-83
2023/05/15 08:07:35;;;;;;;12.77;11.15;;;;;;;;;;5136271;27;20108;-81
2023/05/15 08:10:04;;;;;;;12.15;10.55;;;;;;;;;;5133394;27;20048;-82
2023/05/15 08:12:30;;;;;;;11.65;9.60;;;;;;;;;;5129849;27;20209;-82
2023/05/15 08:14:56;;;;;;;13.25;11.77;;;;;;;;;;5137637;27;20487;-82
2023/05/15 08:17:24;;;;;;;15.80;11.63;;;;;;;;;;5138240;27;20039;-85
2023/05/15 08:19:50;;;;;;;13.63;11.07;;;;;;;;;;5137907;27;20498;-86
2023/05/15 08:22:16;;;;;;;12.77;11.57;;;;;;;;;;5142825;27;20045;-84
2023/05/15 08:24:42;;;;;;;14.13;10.80;;;;;;;;;;5138040;27;20049;-81
2023/05/15 08:27:08;;;;;;;12.55;10.50;;;;;;;;;;5137810;27;20030;-81
2023/05/15 08:29:35;;;;;;;14.55;11.63;;;;;;;;;;5120653;27;20454;-84
2023/05/15 08:32:01;;;;;;;12.70;10.65;;;;;;;;;;5123452;27;20050;-83
2023/05/15 08:34:27;;;;;;;12.98;11.50;;;;;;;;;;5137818;27;20053;-86
2023/05/15 08:36:54;;;;;;;12.05;10.75;;;;;;;;;;5137879;27;20046;-86
2023/05/15 08:39:20;;;;;;;14.02;11.55;;;;;;;;;;5137305;27;20051;-85
2023/05/15 08:41:57;;;;;;;13.73;10.77;;;;;;;;;;5120292;27;20430;-82
2023/05/15 08:44:24;;;;;;;12.10;10.32;;;;;;;;;;5155826;27;20536;-81
2023/05/15 08:46:51;;;;;;;12.63;10.55;;;;;;;;;;5137718;27;20113;-85
2023/05/15 08:49:29;;;;;;;13.60;11.57;;;;;;;;;;5141239;27;20491;-84
2023/05/15 08:51:55;;;;;;;12.70;10.93;;;;;;;;;;5119963;27;20042;-90
2023/05/15 08:54:22;;;;;;;14.80;10.77;;;;;;;;;;5137257;27;20089;-80
2023/05/15 08:56:48;;;;;;;11.65;10.30;;;;;;;;;;5112905;27;20046;-88
2023/05/15 08:59:14;;;;;;;13.65;10.95;;;;;;;;;;5130473;27;20047;-86
2023/05/15 09:01:40;;;;;;;12.23;10.93;;;;;;;;;;5117347;27;20054;-84
2023/05/15 09:04:07;;;;;;;13.63;12.05;;;;;;;;;;5116840;27;20121;-87
2023/05/15 09:06:33;;;;;;;14.82;12.75;;;;;;;;;;5116604;27;20050;-86
2023/05/15 09:09:01;;;;;;;12.43;11.18;;;;;;;;;;5126451;27;20038;-87
2023/05/15 09:11:28;;;;;;;14.13;12.68;;;;;;;;;;5136811;27;20042;-80
2023/05/15 09:13:57;;;;;;;14.13;12.73;;;;;;;;;;5137185;27;20042;-85
2023/05/15 09:16:23;;;;;;;14.63;13.00;;;;;;;;;;5136707;27;20046;-87
2023/05/15 09:18:50;;;;;;;15.50;13.40;;;;;;;;;;5155183;27;20026;-86
2023/05/15 09:21:26;;;;;;;15.48;13.88;;;;;;;;;;5137031;27;20415;-86
2023/05/15 09:23:52;;;;;;;19.58;13.77;;;;;;;;;;5136804;27;20046;-86
2023/05/15 09:26:18;;;;;;;16.70;13.77;;;;;;;;;;5128903;27;20027;-82
2023/05/15 09:28:45;;;;;;;17.08;14.52;;;;;;;;;;5116270;27;20035;-79
2023/05/15 09:31:11;;;;;;;16.48;14.18;;;;;;;;;;5134711;27;20070;-85
2023/05/15 09:33:38;;;;;;;16.40;14.63;;;;;;;;;;5111803;27;20088;-83
2023/05/15 09:36:06;;;;;;;16.42;13.85;;;;;;;;;;5136686;27;20543;-79
2023/05/15 09:38:41;;;;;;;15.32;13.82;;;;;;;;;;5154889;27;20103;-77
2023/05/15 09:41:07;;;;;;;;;;;;;;;;;;5132371;27;20119;-84
2023/05/15 09:43:33;;;;;;;16.10;13.00;;;;;;;;;;5126030;27;20002;-86
2023/05/15 09:46:00;;;;;;;14.98;13.00;;;;;;;;;;5136660;27;20424;-79
2023/05/15 09:48:26;;;;;;;13.32;11.93;;;;;;;;;;5118872;27;20043;-84
2023/05/15 09:50:52;;;;;;;14.23;12.70;;;;;;;;;;5136261;27;20090;-82
2023/05/15 09:53:18;;;;;;;15.00;12.70;;;;;;;;;;5136006;27;20046;-85
2023/05/15 09:55:44;;;;;;;15.20;13.10;;;;;;;;;;5136132;27;20050;-85
2023/05/15 09:58:14;;;;;;;15.75;12.25;;;;;;;;;;5136234;27;20039;-88
2023/05/15 10:00:41;;;;;;;15.13;12.75;;;;;;;;;;5125404;27;20043;-80
2023/05/15 10:03:07;;;;;;;14.85;12.05;;;;;;;;;;5133655;27;20034;-82
2023/05/15 10:05:34;;;;;;;15.32;12.38;;;;;;;;;;5127060;27;20538;-80
2023/05/15 10:08:00;;;;;;;14.38;12.15;;;;;;;;;;5131660;27;20420;-78
2023/05/15 10:10:27;;;;;;;16.85;13.35;;;;;;;;;;5135850;27;20035;-85
2023/05/15 10:12:54;;;;;;;15.45;13.52;;;;;;;;;;5136153;27;20103;-81
2023/05/15 10:15:22;;;;;;;14.80;13.25;;;;;;;;;;5122064;27;20531;-84
2023/05/15 10:17:49;;;;;;;13.80;11.93;;;;;;;;;;5156058;27;20046;-85
2023/05/15 10:20:19;;;;;;;14.13;12.25;;;;;;;;;;5124286;27;20046;-80
2023/05/15 10:22:47;;;;;;;12.57;11.13;;;;;;;;;;5157239;27;20042;-81
2023/05/15 10:25:16;;;;;;;25.35;12.32;;;;;;;;;;5135786;27;20039;-79
2023/05/15 10:27:42;;;;;;;16.42;11.88;;;;;;;;;;5109194;28;20078;-81
2023/05/15 10:30:12;;;;;;;14.13;11.10;;;;;;;;;;5115581;27;20047;-82
2023/05/15 10:32:40;;;;;;;12.98;9.98;;;;;;;;;;5150506;27;20049;-84
2023/05/15 10:35:07;;;;;;;11.27;9.13;;;;;;;;;;5108408;28;20403;-79
2023/05/15 10:37:35;;;;;;;11.98;9.75;;;;;;;;;;5138503;27;20043;-78
2023/05/15 10:40:01;;;;;;;10.25;8.63;;;;;;;;;;5139970;27;20081;-80
2023/05/15 10:42:28;;;;;;;9.73;8.30;;;;;;;;;;5139955;27;20047;-83
2023/05/15 10:44:58;;;;;;;10.00;8.55;;;;;;;;;;5140039;27;20491;-83
2023/05/15 10:47:25;;;;;;;10.88;8.70;;;;;;;;;;5139507;27;20088;-84
2023/05/15 10:49:51;;;;;;;12.32;8.48;;;;;;;;;;5107698;27;20073;-86
2023/05/15 10:52:18;;;;;;;10.20;7.95;;;;;;;;;;5139470;27;20383;-87
2023/05/15 10:54:44;;;;;;;10.88;8.45;;;;;;;;;;5139299;27;20398;-85
2023/05/15 10:57:10;;;;;;;12.60;8.52;;;;;;;;;;5122133;27;20045;-83
2023/05/15 10:59:36;;;;;;;10.60;8.98;;;;;;;;;;5139166;27;20078;-78
2023/05/15 11:02:23;;;;;;;12.32;9.60;;;;;;;;;;5139327;27;20042;-82
2023/05/15 11:05:02;;;;;;;12.85;9.82;;;;;;;;;;5143079;27;20094;-81
2023/05/15 11:07:29;;;;;;;13.80;9.93;;;;;;;;;;5127960;27;20031;-83
2023/05/15 11:09:55;;;;;;;11.18;10.02;;;;;;;;;;5151101;27;20084;-78
2023/05/15 11:12:23;;;;;;;11.70;10.48;;;;;;;;;;5146870;27;20038;-77
2023/05/15 11:14:55;;;;;;;12.05;10.23;;;;;;;;;;5137579;27;20129;-82
2023/05/15 11:17:24;;;;;;;11.73;9.88;;;;;;;;;;5145641;27;20049;-83
2023/05/15 11:19:50;;;;;;;13.48;10.07;;;;;;;;;;5124496;27;20592;-81
2023/05/15 11:22:18;;;;;;;10.88;9.73;;;;;;;;;;5139329;27;20499;-83
2023/05/15 11:24:51;;;;;;;12.18;9.52;;;;;;;;;;5121543;27;20035;-79
2023/05/15 11:27:19;;;;;;;11.65;9.48;;;;;;;;;;5128580;27;20361;-77
2023/05/15 11:30:04;;;;;;;10.95;9.43;;;;;;;;;;5129547;27;20049;-80
2023/05/15 11:32:52;;;;;;;11.13;9.13;;;;;;;;;;5115827;27;20036;-83
2023/05/15 11:35:37;;;;;;;10.82;8.77;;;;;;;;;;5132202;27;20049;-83
2023/05/15 11:38:05;;;;;;;11.52;9.10;;;;;;;;;;5144029;27;20119;-83
2023/05/15 11:40:46;;;;;;;10.50;8.63;;;;;;;;;;5125041;27;20121;-77
2023/05/15 11:43:23;;;;;;;8.95;8.05;;;;;;;;;;5140800;27;20113;-79
2023/05/15 11:45:52;;;;;;;13.35;8.30;;;;;;;;;;5121044;27;20046;-84
2023/05/15 11:48:18;;;;;;;12.05;8.98;;;;;;;;;;5121074;27;20070;-77
2023/05/15 11:50:45;;;;;;;10.85;8.27;;;;;;;;;;5157293;27;20495;-79
2023/05/15 11:53:12;;;;;;;11.90;7.88;;;;;;;;;;5123484;27;20054;-79
2023/05/15 11:55:40;;;;;;;13.60;8.20;;;;;;;;;;5138139;27;20046;-78
2023/05/15 11:58:10;;;;;;;9.35;8.45;;;;;;;;;;5137445;27;20050;-81
2023/05/15 12:00:36;;;;;;;9.73;7.43;;;;;;;;;;5143919;27;20042;-83
2023/05/15 12:03:02;;;;;;;9.60;8.02;;;;;;;;;;5156763;27;20433;-87
2023/05/15 12:05:29;;;;;;;8.38;7.47;;;;;;;;;;5123288;27;20050;-85
2023/05/15 12:07:55;;;;;;;8.98;7.97;;;;;;;;;;5137636;27;20039;-84
2023/05/15 12:10:22;;;;;;;9.52;8.45;;;;;;;;;;5137864;27;20038;-82
2023/05/15 12:12:48;;;;;;;9.63;8.63;;;;;;;;;;5129979;27;20039;-84
2023/05/15 12:15:15;;;;;;;10.20;8.25;;;;;;;;;;5124280;27;20402;-86
2023/05/15 12:17:42;;;;;;;10.35;8.52;;;;;;;;;;5124910;27;20502;-86
2023/05/15 12:20:10;;;;;;;11.13;8.60;;;;;;;;;;5131821;27;20039;-85
2023/05/15 12:22:37;;;;;;;9.80;8.52;;;;;;;;;;5100234;27;20095;-86
2023/05/15 12:25:03;;;;;;;14.10;9.00;;;;;;;;;;5134980;27;20087;-85
2023/05/15 12:27:29;;;;;;;9.15;8.07;;;;;;;;;;5138075;27;20453;-85
2023/05/15 12:29:55;;;;;;;9.55;7.90;;;;;;;;;;5155695;27;20042;-83
2023/05/15 12:32:22;;;;;;;8.80;7.40;;;;;;;;;;5137374;27;20038;-85
2023/05/15 12:34:48;;;;;;;10.02;8.02;;;;;;;;;;5137478;27;20051;-84
2023/05/15 12:37:14;;;;;;;8.25;7.22;;;;;;;;;;5137409;27;20038;-84
2023/05/15 12:39:53;;;;;;;9.35;7.13;;;;;;;;;;5100280;27;20130;-86
2023/05/15 12:42:19;;;;;;;8.88;7.25;;;;;;;;;;5131117;27;20049;-86
2023/05/15 12:44:45;;;;;;;10.63;7.85;;;;;;;;;;5113864;27;20035;-82
2023/05/15 12:47:15;;;;;;;8.45;7.50;;;;;;;;;;5129590;27;20121;-83
2023/05/15 12:49:41;;;;;;;7.93;7.10;;;;;;;;;;5156116;27;20117;-84
2023/05/15 12:52:09;;;;;;;9.73;7.18;;;;;;;;;;5120445;27;20050;-85
2023/05/15 12:54:39;;;;;;;10.35;6.30;;;;;;;;;;5155958;27;20034;-86
2023/05/15 12:57:05;;;;;;;8.80;6.88;;;;;;;;;;5136756;27;20265;-84
2023/05/15 12:59:31;;;;;;;8.68;7.03;;;;;;;;;;5136320;27;20042;-84
2023/05/15 13:01:57;;;;;;;9.48;7.32;;;;;;;;;;5156855;27;20057;-85
2023/05/15 13:04:23;;;;;;;7.45;6.65;;;;;;;;;;5140146;27;20046;-86
2023/05/15 13:06:49;;;;;;;9.52;7.70;;;;;;;;;;5158229;27;20035;-83
2023/05/15 13:09:21;;;;;;;8.52;7.65;;;;;;;;;;5157849;27;20045;-82
2023/05/15 13:11:47;;;;;;;9.20;7.80;;;;;;;;;;5142313;27;20118;-81
2023/05/15 13:14:16;;;;;;;11.18;7.28;;;;;;;;;;5138187;27;20062;-82
2023/05/15 13:16:43;;;;;;;10.20;7.38;;;;;;;;;;5137966;27;20066;-82
2023/05/15 13:19:09;;;;;;;9.05;7.75;;;;;;;;;;5122508;27;20042;-85
2023/05/15 13:21:35;;;;;;;11.05;8.73;;;;;;;;;;5157491;27;20045;-86
2023/05/15 13:24:01;;;;;;;10.60;8.30;;;;;;;;;;5139110;27;20114;-84
2023/05/15 13:26:27;;;;;;;9.35;8.32;;;;;;;;;;5136719;27;20479;-84
2023/05/15 13:28:53;;;;;;;11.35;8.88;;;;;;;;;;5136243;27;20034;-83
2023/05/15 13:31:19;;;;;;;10.40;9.30;;;;;;;;;;5136598;27;20035;-84
2023/05/15 13:33:45;;;;;;;10.68;9.10;;;;;;;;;;5136425;27;20049;-84
2023/05/15 13:36:12;;;;;;;21.60;10.13;;;;;;;;;;5136215;27;20059;-80
2023/05/15 13:38:38;;;;;;;10.60;9.48;;;;;;;;;;5155034;27;20035;-77
2023/05/15 13:41:04;;;;;;;12.90;9.15;;;;;;;;;;5154364;27;20117;-79
2023/05/15 13:43:30;;;;;;;12.50;10.43;;;;;;;;;;5126164;27;20085;-81
2023/05/15 13:45:57;;;;;;;14.45;10.15;;;;;;;;;;5117127;27;20047;-81
2023/05/15 13:48:23;;;;;;;11.60;9.30;;;;;;;;;;5136161;27;20038;-81
2023/05/15 13:50:49;;;;;;;11.25;10.05;;;;;;;;;;5154844;27;20057;-81
2023/05/15 13:53:15;;;;;;;12.05;10.48;;;;;;;;;;5138991;27;20055;-78
2023/05/15 13:55:45;;;;;;;21.63;11.20;;;;;;;;;;5135324;27;20047;-87
2023/05/15 13:58:12;;;;;;;13.75;11.18;;;;;;;;;;5153299;27;20035;-86
2023/05/15 14:00:41;;;;;;;14.40;10.48;;;;;;;;;;5135285;27;20113;-85
2023/05/15 14:03:07;;;;;;;15.32;10.68;;;;;;;;;;5134621;27;20045;-83
2023/05/15 14:05:34;;;;;;;15.75;11.07;;;;;;;;;;5144049;27;20075;-84
2023/05/15 14:08:00;;;;;;;15.02;11.30;;;;;;;;;;5129944;27;20038;-85
2023/05/15 14:10:26;;;;;;;13.13;10.95;;;;;;;;;;5135094;27;20542;-83
2023/05/15 14:12:52;;;;;;;13.68;10.80;;;;;;;;;;5133896;27;20121;-86
2023/05/15 14:15:18;;;;;;;13.63;10.43;;;;;;;;;;5134695;27;20049;-85
2023/05/15 14:17:47;;;;;;;13.27;11.55;;;;;;;;;;5135136;27;20107;-84
2023/05/15 14:20:13;;;;;;;17.05;11.55;;;;;;;;;;5134549;27;20049;-84